• Join FlightAware (Why Join?)
  • Login
  • US Flag 
11:34AM EST


 

Airport Tracker/Info


-or-


 

Live Flight TrackerFlight Track Log ✈ AWE1913 ✈ 10-Apr-2013 ✈ KDTW - KPHL

Flight Track Log - Related Links

Times and Time Zones

All times are in EDT time to prevent confusion due to time zone crossing. See the AWE1913 flight status page for this flight to view local times or setup timezone preferences in your user account.

Time Position Orientation Groundspeed Altitude Reporting Facility
EDT Latitude Longitude Course Direction KTS MPH feet Rate Location/Type
07:31AM 42.2272 -83.3369 90° East 142 163 1,300  Level Cleveland Center
07:32AM 42.2536 -83.2792 58° Northeast 212 244 3,400 1,680 Climbing Cleveland Center
07:33AM 42.2808 -83.1792 70° East 319 367 5,100 2,400 Climbing Cleveland Center
07:34AM 42.2167 -82.8208 90° East  Level FlightAware Approximate
07:34AM 42.2811 -83.0753 90° East 336 387 8,400  Level Cleveland Center
07:35AM 42.2167 -82.6421 90° East  Level FlightAware Approximate
07:35AM 42.2147 -82.9550 127° Southeast 337 388 10,900  Level Cleveland Center
07:36AM 42.2167 -82.4633 90° East  Level FlightAware Approximate
07:36AM 42.1900 -82.8336 105° East 398 458 12,900  Level Cleveland Center
07:37AM 42.2036 -82.6769 83° East 373 429 14,300 1,980 Climbing Cleveland Center
07:38AM 42.1769 -82.5278 104° East 391 450 16,900 2,520 Climbing Cleveland Center
07:39AM 42.1144 -82.3942 122° Southeast 396 456 19,400 2,040 Climbing Cleveland Center
07:40AM 42.0478 -82.2608 124° Southeast 410 472 21,000 1,080 Climbing Cleveland Center
07:41AM 41.9831 -82.1222 122° Southeast 433 498 21,600 1,200 Climbing Cleveland Center
07:42AM 41.9161 -81.9811 122° Southeast 450 518 23,500 1,440 Climbing Cleveland Center
07:43AM 41.8447 -81.8375 124° Southeast 450 518 24,500 1,200 Climbing Cleveland Center
07:44AM 41.7733 -81.6914 123° Southeast 463 533 26,000 1,560 Climbing Cleveland Center
07:45AM 41.6997 -81.5369 123° Southeast 472 543 27,700 1,680 Climbing Cleveland Center
07:46AM 41.6258 -81.3831 123° Southeast 488 562 29,400 1,500 Climbing Cleveland Center
07:47AM 41.5578 -81.2492 124° Southeast 493 567 30,700 1,500 Climbing Cleveland Center
07:48AM 41.4753 -81.1069 128° Southeast 486 559 32,400 1,620 Climbing Cleveland Center
07:49AM 41.3819 -80.9761 134° Southeast 481 554 34,000 1,260 Climbing Cleveland Center
07:50AM 41.2906 -80.8511 134° Southeast 481 554 35,000 480 Climbing Cleveland Center
07:51AM 41.1908 -80.7100 133° Southeast 476 548 35,000  Level Cleveland Center
07:52AM 41.1117 -80.5997 134° Southeast 470 541 35,000  Level Cleveland Center
07:53AM 41.0197 -80.4758 135° Southeast 470 541 35,000  Level Cleveland Center
07:54AM 40.9278 -80.3494 134° Southeast 470 541 35,000  Level Cleveland Center
07:55AM 40.8253 -80.2181 136° Southeast 470 541 35,000  Level Cleveland Center
07:56AM 40.7353 -80.0953 134° Southeast 470 541 35,000  Level Cleveland Center
07:57AM 40.6556 -79.9808 133° Southeast 464 534 35,000  Level Cleveland Center
07:58AM 40.5836 -79.8175 120° Southeast 464 534 35,000  Level Cleveland Center
07:59AM 40.5428 -79.6514 108° East 464 534 35,000  Level Cleveland Center
08:00AM 40.4975 -79.4856 110° East 470 541 35,000  Level Cleveland Center
08:01AM 40.4522 -79.3225 110° East 475 547 35,000 -240 Level Cleveland Center
08:02AM 40.4044 -79.1597 111° Southeast 475 547 34,600 -660 Descending Cleveland Center
08:03AM 40.3628 -79.0136 110° East 470 541 33,700 -960 Descending Cleveland Center
08:04AM 40.3269 -78.8456 106° East 470 541 32,700 -960 Descending Cleveland Center
08:05AM 40.3158 -78.6717 95° East 470 541 31,800 -1,080 Descending Cleveland Center
08:06AM 40.3150 -78.5000 90° East 477 549 30,600 -1,200 Descending Cleveland Center
08:07AM 40.3136 -78.3258 91° East 472 543 29,500 -1,800 Descending Cleveland Center
08:09AM 40.3125 -77.9767 90° East 481 554 25,400 -1,680 Descending New York Center
08:10AM 40.3103 -77.8075 91° East 475 547 24,700 -1,680 Descending New York Center
08:11AM 40.3114 -77.6444 89° East 461 531 22,200 -2,460 Descending New York Center
08:12AM 40.3081 -77.4889 92° East 446 513 19,800 -2,340 Descending New York Center
08:13AM 40.3053 -77.3497 91° East 432 497 17,500 -1,440 Descending New York Center
08:14AM 40.3042 -77.1836 90° East 418 481 17,000 -300 Descending New York Center
08:15AM 40.2933 -77.0356 95° East 413 475 17,000 -120 Level New York Center
08:16AM 40.2592 -76.8883 107° East 420 483 16,800 -1,140 Descending New York Center
08:17AM 40.2269 -76.7467 107° East 420 483 14,700 -2,220 Descending New York Center
08:18AM 40.1942 -76.6081 107° East 405 466 12,300 -2,220 Descending New York Center
08:19AM 40.1647 -76.4858 107° East 393 452 10,400 -1,380 Descending New York Center
08:20AM 40.1381 -76.3681 106° East 387 445 10,000 -420 Descending FAA TRACON SMA TRACON (SMA)
08:20AM 40.1281 -76.3269 108° East 386 444 10,000  Level FAA TRACON SMA TRACON (SMA)
08:21AM 40.1189 -76.2858 106° East 384 442 10,000  Level FAA TRACON SMA TRACON (SMA)
08:21AM 40.1178 -76.2336 92° East 378 435 10,000  Level FAA TRACON SMA TRACON (SMA)
08:21AM 40.1128 -76.1922 99° East 378 435 10,000 -180 Level FAA TRACON SMA TRACON (SMA)
08:22AM 40.1111 -76.1508 93° East 356 410 9,900 -600 Descending FAA TRACON SMA TRACON (SMA)
08:22AM 40.1078 -76.1044 95° East 339 390 9,600 -1,080 Descending FAA TRACON SMA TRACON (SMA)
08:22AM 40.1050 -76.0686 96° East 328 377 9,200 -1,380 Descending FAA TRACON SMA TRACON (SMA)
08:23AM 40.1019 -76.0331 96° East 321 369 8,700 -1,680 Descending FAA TRACON SMA TRACON (SMA)
08:23AM 40.0992 -75.9883 95° East 321 369 8,100 -1,080 Descending FAA TRACON SMA TRACON (SMA)
08:23AM 40.0969 -75.9528 95° East 320 368 8,000 -180 Descending FAA TRACON SMA TRACON (SMA)
08:24AM 40.0944 -75.9178 95° East 319 367 8,000  Level FAA TRACON SMA TRACON (SMA)
08:24AM 40.0911 -75.8731 96° East 320 368 8,000  Level FAA TRACON SMA TRACON (SMA)
08:24AM 40.0894 -75.8397 94° East 319 367 8,000  Level FAA TRACON SMA TRACON (SMA)
08:25AM 40.0861 -75.8039 97° East 319 367 8,000  Level FAA TRACON SMA TRACON (SMA)
08:25AM 40.0828 -75.7578 95° East 319 367 8,000  Level FAA TRACON SMA TRACON (SMA)
08:25AM 40.0814 -75.7228 93° East 319 367 8,000  Level FAA TRACON SMA TRACON (SMA)
08:26AM 40.0917 -75.6908 67° East 302 348 8,000  Level FAA TRACON SMA TRACON (SMA)
08:26AM 40.1067 -75.6528 63° Northeast 303 349 8,000  Level FAA TRACON SMA TRACON (SMA)
08:26AM 40.1172 -75.6253 63° Northeast 290 334 8,000  Level FAA TRACON SMA TRACON (SMA)
08:27AM 40.1278 -75.5967 64° Northeast 277 319 8,000 -480 Level FAA TRACON SMA TRACON (SMA)
08:27AM 40.1389 -75.5653 65° Northeast 260 299 7,700 -1,080 Descending FAA TRACON SMA TRACON (SMA)
08:27AM 40.1489 -75.5381 64° Northeast 258 297 7,300 -1,080 Descending FAA TRACON SMA TRACON (SMA)
08:28AM 40.1581 -75.5133 64° Northeast 260 299 7,000 -1,080 Descending FAA TRACON SMA TRACON (SMA)
08:28AM 40.1681 -75.4858 65° Northeast 258 297 6,600 -1,380 Descending FAA TRACON SMA TRACON (SMA)
08:28AM 40.1794 -75.4533 65° Northeast 256 295 6,100 -900 Descending FAA TRACON SMA TRACON (SMA)
08:29AM 40.1819 -75.4242 84° East 282 325 6,000 -180 Descending FAA TRACON SMA TRACON (SMA)
08:29AM 40.1711 -75.3978 118° Southeast 273 314 6,000  Level FAA TRACON SMA TRACON (SMA)
08:29AM 40.1544 -75.3703 128° Southeast 272 313 6,000  Level FAA TRACON SMA TRACON (SMA)
08:30AM 40.1397 -75.3439 126° Southeast 263 303 6,000  Level FAA TRACON SMA TRACON (SMA)
08:30AM 40.1236 -75.3172 128° Southeast 262 302 6,000  Level FAA TRACON SMA TRACON (SMA)
08:30AM 40.1089 -75.2936 129° Southeast 261 300 6,000  Level FAA TRACON SMA TRACON (SMA)
08:31AM 40.0953 -75.2714 129° Southeast 260 299 6,000  Level FAA TRACON SMA TRACON (SMA)
08:31AM 40.0814 -75.2478 128° Southeast 260 299 6,000  Level FAA TRACON SMA TRACON (SMA)
08:31AM 40.0647 -75.2208 129° Southeast 258 297 6,000  Level FAA TRACON SMA TRACON (SMA)
08:32AM 40.0472 -75.2019 140° Southeast 251 289 6,000  Level FAA TRACON SMA TRACON (SMA)
08:32AM 40.0275 -75.1944 164° South 245 282 6,000  Level FAA TRACON SMA TRACON (SMA)
08:32AM 40.0011 -75.1853 165° South 248 285 6,000  Level FAA TRACON SMA TRACON (SMA)
08:33AM 39.9836 -75.1689 144° Southeast 254 292 6,000  Level FAA TRACON SMA TRACON (SMA)
08:33AM 39.9778 -75.1417 106° East 253 291 6,000  Level FAA TRACON SMA TRACON (SMA)
08:33AM 39.9847 -75.1081 75° East 258 297 6,000  Level FAA TRACON SMA TRACON (SMA)
08:34AM 39.9917 -75.0803 72° East 255 293 6,000  Level FAA TRACON SMA TRACON (SMA)
08:34AM 39.9983 -75.0542 72° East 255 293 6,000  Level FAA TRACON SMA TRACON (SMA)
08:34AM 40.0053 -75.0200 75° East 256 295 6,000  Level FAA TRACON SMA TRACON (SMA)
08:35AM 40.0117 -74.9908 74° East 257 296 6,000  Level FAA TRACON SMA TRACON (SMA)
08:35AM 40.0186 -74.9656 70° East 257 296 6,000  Level FAA TRACON SMA TRACON (SMA)
08:35AM 40.0256 -74.9289 76° East 258 297 6,000  Level FAA TRACON SMA TRACON (SMA)
08:36AM 40.0319 -74.9017 73° East 257 296 6,000  Level FAA TRACON SMA TRACON (SMA)
08:36AM 40.0378 -74.8736 75° East 258 297 6,000  Level FAA TRACON SMA TRACON (SMA)
08:36AM 40.0456 -74.8386 74° East 259 298 6,000  Level FAA TRACON SMA TRACON (SMA)
08:37AM 40.0478 -74.8097 84° East 280 322 6,000  Level FAA TRACON SMA TRACON (SMA)
08:37AM 40.0386 -74.7856 116° Southeast 236 272 6,000  Level FAA TRACON SMA TRACON (SMA)
08:37AM 40.0189 -74.7753 158° South 215 247 6,000  Level FAA TRACON SMA TRACON (SMA)
08:38AM 40.0014 -74.7775 186° South 205 236 6,000  Level FAA TRACON SMA TRACON (SMA)
08:38AM 39.9861 -74.7803 188° South 189 217 6,000 -300 Level FAA TRACON SMA TRACON (SMA)
08:38AM 39.9661 -74.7844 189° South 187 215 5,800 -900 Descending FAA TRACON SMA TRACON (SMA)
08:39AM 39.9514 -74.7908 198° South 183 211 5,400 -1,080 Descending FAA TRACON SMA TRACON (SMA)
08:39AM 39.9347 -74.7908 180° South 186 214 5,100 -600 Descending FAA TRACON SMA TRACON (SMA)
08:39AM 39.9178 -74.8017 206° Southwest 175 201 5,000 -180 Descending FAA TRACON SMA TRACON (SMA)
08:40AM 39.9164 -74.8194 264° West 167 192 5,000  Level FAA TRACON SMA TRACON (SMA)
08:40AM 39.9194 -74.8358 284° West 162 186 5,000 -300 Level FAA TRACON SMA TRACON (SMA)
08:40AM 39.9242 -74.8564 287° West 152 175 4,800 -780 Descending FAA TRACON SMA TRACON (SMA)
08:41AM 39.9281 -74.8725 287° West 153 176 4,500 -1,080 Descending FAA TRACON SMA TRACON (SMA)
08:41AM 39.9314 -74.8886 285° West 151 174 4,100 -780 Descending FAA TRACON SMA TRACON (SMA)
08:41AM 39.9356 -74.9086 285° West 152 175 4,000 -180 Descending FAA TRACON SMA TRACON (SMA)
08:42AM 39.9328 -74.9272 259° West 168 193 4,000  Level FAA TRACON SMA TRACON (SMA)
08:42AM 39.9297 -74.9450 257° West 171 197 4,000 -180 Level FAA TRACON SMA TRACON (SMA)
08:42AM 39.9258 -74.9667 257° West 161 185 3,900 -480 Descending FAA TRACON SMA TRACON (SMA)
08:43AM 39.9222 -74.9844 255° West 163 188 3,700 -780 Descending FAA TRACON SMA TRACON (SMA)
08:43AM 39.9194 -75.0022 258° West 162 186 3,400 -1,080 Descending FAA TRACON SMA TRACON (SMA)
08:43AM 39.9147 -75.0236 254° West 161 185 3,000 -900 Descending FAA TRACON SMA TRACON (SMA)
08:44AM 39.9108 -75.0406 253° West 160 184 2,800 -600 Descending FAA TRACON SMA TRACON (SMA)